createdAt,value
2023-03-04T00:00:49.823Z,18.00
2023-03-04T00:01:49.840Z,18.70
2023-03-04T00:02:49.824Z,18.60
2023-03-04T00:03:49.776Z,19.30
2023-03-04T00:04:49.758Z,18.70
2023-03-04T00:05:49.791Z,19.00
2023-03-04T00:06:49.733Z,19.50
2023-03-04T00:07:49.718Z,19.40
2023-03-04T00:08:49.713Z,18.70
2023-03-04T00:09:49.688Z,18.50
2023-03-04T00:10:49.712Z,18.80
2023-03-04T00:11:49.669Z,18.60
2023-03-04T00:12:49.677Z,20.20
2023-03-04T00:13:49.643Z,17.90
2023-03-04T00:14:49.635Z,19.50
2023-03-04T00:15:49.647Z,19.30
2023-03-04T00:16:49.608Z,19.20
2023-03-04T00:17:49.594Z,19.50
2023-03-04T00:18:49.589Z,19.60
2023-03-04T00:19:49.567Z,18.80
2023-03-04T00:20:49.605Z,18.20
2023-03-04T00:21:49.551Z,19.90
2023-03-04T00:22:49.541Z,18.10
2023-03-04T00:23:49.520Z,18.20
2023-03-04T00:24:49.510Z,18.00
2023-03-04T00:25:49.534Z,16.90
2023-03-04T00:26:49.483Z,18.30
2023-03-04T00:27:49.471Z,18.90
2023-03-04T00:28:49.458Z,18.50
2023-03-04T00:29:49.447Z,19.10
2023-03-04T00:30:49.452Z,19.20
2023-03-04T00:31:49.510Z,19.40
2023-03-04T00:32:49.408Z,18.60
2023-03-04T00:33:49.406Z,17.60
2023-03-04T00:34:49.380Z,18.20
2023-03-04T00:35:49.456Z,18.90
2023-03-04T00:36:49.361Z,18.30
2023-03-04T00:37:49.346Z,18.30
2023-03-04T00:38:49.332Z,17.30
2023-03-04T00:39:49.320Z,18.80
2023-03-04T00:40:49.307Z,18.00
2023-03-04T00:41:49.311Z,16.50
2023-03-04T00:42:49.288Z,16.10
2023-03-04T00:43:49.265Z,18.70
2023-03-04T00:44:49.263Z,17.20
2023-03-04T00:45:49.352Z,18.60
2023-03-04T00:46:49.228Z,18.20
2023-03-04T00:47:49.225Z,16.90
2023-03-04T00:48:49.206Z,16.90
2023-03-04T00:49:49.193Z,16.50
2023-03-04T00:50:49.227Z,17.70
2023-03-04T00:51:49.461Z,16.20
2023-03-04T00:52:55.162Z,17.50
2023-03-04T00:53:49.145Z,16.20
2023-03-04T00:54:49.136Z,16.60
2023-03-04T00:55:49.137Z,18.20
2023-03-04T00:56:49.124Z,16.50
2023-03-04T00:57:49.108Z,16.80
2023-03-04T00:58:49.122Z,17.30
2023-03-04T00:59:49.075Z,17.20
2023-03-04T01:00:49.080Z,17.10
2023-03-04T01:01:49.083Z,16.60
2023-03-04T01:02:49.096Z,16.90
2023-03-04T01:03:49.023Z,17.20
2023-03-04T01:04:49.025Z,16.40
2023-03-04T01:05:49.004Z,16.90
2023-03-04T01:06:49.008Z,18.50
2023-03-04T01:07:48.990Z,17.80
2023-03-04T01:08:48.989Z,17.20
2023-03-04T01:09:48.945Z,17.70
2023-03-04T01:10:48.948Z,16.90
2023-03-04T01:11:48.964Z,17.60
2023-03-04T01:12:48.919Z,18.80
2023-03-04T01:13:48.930Z,18.60
2023-03-04T01:14:48.882Z,17.40
2023-03-04T01:15:48.877Z,17.10
2023-03-04T01:16:48.905Z,17.30
2023-03-04T01:17:48.935Z,18.30
2023-03-04T01:18:48.849Z,16.80
2023-03-04T01:19:48.832Z,16.80
2023-03-04T01:20:48.806Z,18.20
2023-03-04T01:21:48.812Z,18.20
2023-03-04T01:22:48.802Z,16.90
2023-03-04T01:23:48.787Z,18.50
2023-03-04T01:24:48.765Z,17.50
2023-03-04T01:25:48.765Z,17.30
2023-03-04T01:26:48.816Z,17.50
2023-03-04T01:27:48.731Z,19.00
2023-03-04T01:28:48.716Z,17.20
2023-03-04T01:29:48.728Z,19.00
2023-03-04T01:30:48.721Z,16.80
2023-03-04T01:31:48.706Z,17.90
2023-03-04T01:32:48.663Z,17.90
2023-03-04T01:33:48.653Z,17.80
2023-03-04T01:34:48.645Z,16.60
2023-03-04T01:35:48.681Z,19.60
2023-03-04T01:36:48.629Z,18.70
2023-03-04T01:37:48.598Z,17.50
2023-03-04T01:38:48.580Z,17.90
2023-03-04T01:39:48.580Z,18.20
2023-03-04T01:40:48.568Z,18.90
2023-03-04T01:41:48.575Z,19.70
2023-03-04T01:42:48.536Z,17.80
2023-03-04T01:43:48.503Z,19.40
2023-03-04T01:44:48.513Z,18.20
2023-03-04T01:45:48.542Z,17.80
2023-03-04T01:46:48.516Z,18.90
2023-03-04T01:47:48.471Z,19.90
2023-03-04T01:48:48.484Z,17.60
2023-03-04T01:49:48.451Z,18.10
2023-03-04T01:50:48.437Z,19.60
2023-03-04T01:51:48.441Z,19.40
2023-03-04T01:52:48.424Z,19.40
2023-03-04T01:53:48.396Z,18.00
2023-03-04T01:54:48.389Z,17.50
2023-03-04T01:55:48.378Z,18.20
2023-03-04T01:56:48.384Z,19.40
2023-03-04T01:57:48.345Z,18.30
2023-03-04T01:58:48.347Z,19.00
2023-03-04T01:59:48.326Z,19.00
2023-03-04T02:00:48.313Z,17.20
2023-03-04T02:01:48.355Z,19.40
2023-03-04T02:02:48.289Z,19.60
2023-03-04T02:03:48.275Z,19.60
2023-03-04T02:04:48.266Z,21.50
2023-03-04T02:05:48.245Z,19.00
2023-03-04T02:06:48.270Z,19.00
2023-03-04T02:07:48.217Z,21.40
2023-03-04T02:08:48.218Z,20.80
2023-03-04T02:09:48.203Z,18.20
2023-03-04T02:10:48.198Z,20.00
2023-03-04T02:11:48.201Z,20.60
2023-03-04T02:12:48.161Z,19.80
2023-03-04T02:13:48.142Z,18.80
2023-03-04T02:14:48.136Z,19.60
2023-03-04T02:15:48.148Z,18.40
2023-03-04T02:16:48.141Z,18.20
2023-03-04T02:17:48.114Z,18.60
2023-03-04T02:18:48.110Z,19.50
2023-03-04T02:19:48.082Z,18.90
2023-03-04T02:20:48.068Z,19.30
2023-03-04T02:21:48.065Z,19.40
2023-03-04T02:22:48.058Z,19.90
2023-03-04T02:23:48.023Z,19.00
2023-03-04T02:24:48.023Z,19.30
2023-03-04T02:25:48.007Z,19.50
2023-03-04T02:26:48.025Z,19.00
2023-03-04T02:27:47.994Z,19.00
2023-03-04T02:28:47.972Z,19.60
2023-03-04T02:29:47.957Z,19.90
2023-03-04T02:30:47.957Z,20.30
2023-03-04T02:31:47.958Z,20.50
2023-03-04T02:32:47.956Z,19.80
2023-03-04T02:33:47.900Z,19.40
2023-03-04T02:34:47.892Z,19.40
2023-03-04T02:35:47.964Z,20.20
2023-03-04T02:36:47.865Z,21.40
2023-03-04T02:37:47.894Z,19.70
2023-03-04T02:38:47.858Z,20.40
2023-03-04T02:39:47.838Z,20.50
2023-03-04T02:40:47.817Z,20.60
2023-03-04T02:41:47.802Z,20.60
2023-03-04T02:42:47.814Z,20.00
2023-03-04T02:43:47.772Z,20.60
2023-03-04T02:44:47.778Z,19.70
2023-03-04T02:45:47.758Z,20.30
2023-03-04T02:46:47.827Z,20.30
2023-03-04T02:47:47.745Z,19.20
2023-03-04T02:48:47.721Z,20.00
2023-03-04T02:49:47.714Z,19.90
2023-03-04T02:50:47.706Z,19.30
2023-03-04T02:51:47.674Z,20.80
2023-03-04T02:52:47.698Z,21.30
2023-03-04T02:53:47.662Z,21.10
2023-03-04T02:54:47.641Z,20.00
2023-03-04T02:55:47.637Z,20.70
2023-03-04T02:56:47.614Z,19.80
2023-03-04T02:57:47.654Z,21.30
2023-03-04T02:58:47.595Z,21.70
2023-03-04T02:59:47.611Z,22.30
2023-03-04T03:00:47.580Z,20.50
2023-03-04T03:01:47.646Z,21.60
2023-03-04T03:02:47.586Z,20.80
2023-03-04T03:03:47.539Z,20.90
2023-03-04T03:04:47.545Z,20.80
2023-03-04T03:05:47.506Z,19.70
2023-03-04T03:06:47.511Z,21.70
2023-03-04T03:07:47.848Z,21.50
2023-03-04T03:08:47.473Z,21.10
2023-03-04T03:09:47.464Z,20.20
2023-03-04T03:10:47.465Z,20.70
2023-03-04T03:11:47.434Z,20.50
2023-03-04T03:12:47.454Z,21.00
2023-03-04T03:13:47.404Z,21.10
2023-03-04T03:14:47.409Z,20.50
2023-03-04T03:15:49.724Z,21.10
2023-03-04T03:16:47.401Z,21.30
2023-03-04T03:17:47.394Z,21.00
2023-03-04T03:18:47.383Z,19.70
2023-03-04T03:19:47.333Z,21.90
2023-03-04T03:20:47.332Z,21.60
2023-03-04T03:21:47.308Z,21.70
2023-03-04T03:22:47.324Z,21.90
2023-03-04T03:23:47.297Z,20.70
2023-03-04T03:24:47.276Z,21.40
2023-03-04T03:25:47.253Z,20.90
2023-03-04T03:26:47.250Z,21.60
2023-03-04T03:27:47.296Z,21.80
2023-03-04T03:28:47.229Z,21.00
2023-03-04T03:29:47.222Z,23.20
2023-03-04T03:30:47.195Z,22.60
2023-03-04T03:31:47.246Z,21.00
2023-03-04T03:32:47.202Z,21.60
2023-03-04T03:33:47.152Z,21.80
2023-03-04T03:34:47.154Z,23.10
2023-03-04T03:35:47.139Z,22.90
2023-03-04T03:36:47.117Z,22.90
2023-03-04T03:37:47.148Z,22.80
2023-03-04T03:38:47.088Z,22.00
2023-03-04T03:39:47.099Z,21.40
2023-03-04T03:40:47.079Z,23.30
2023-03-04T03:41:47.080Z,23.10
2023-03-04T03:42:47.092Z,22.30
2023-03-04T03:43:47.035Z,22.00
2023-03-04T03:44:47.023Z,22.30
2023-03-04T03:45:47.185Z,21.70
2023-03-04T03:46:47.000Z,22.70
2023-03-04T03:47:47.068Z,22.10
2023-03-04T03:48:46.970Z,21.40
2023-03-04T03:49:46.966Z,21.30
2023-03-04T03:50:46.943Z,21.80
2023-03-04T03:51:46.935Z,21.70
2023-03-04T03:52:46.985Z,24.10
2023-03-04T03:53:46.904Z,20.70
2023-03-04T03:54:46.895Z,21.10
2023-03-04T03:55:46.920Z,21.20
2023-03-04T03:56:46.898Z,21.20
2023-03-04T03:57:46.860Z,22.60
2023-03-04T03:58:46.899Z,21.40
2023-03-04T03:59:46.827Z,22.70
2023-03-04T04:00:46.825Z,22.10
2023-03-04T04:01:46.897Z,22.00
2023-03-04T04:02:46.915Z,21.00
2023-03-04T04:03:46.822Z,21.60
2023-03-04T04:04:46.776Z,22.00
2023-03-04T04:05:46.767Z,21.90
2023-03-04T04:06:46.748Z,22.30
2023-03-04T04:07:46.738Z,23.00
2023-03-04T04:08:46.761Z,20.70
2023-03-04T04:09:46.708Z,22.40
2023-03-04T04:10:46.699Z,22.30
2023-03-04T04:11:46.685Z,22.70
2023-03-04T04:12:46.701Z,22.70
2023-03-04T04:13:46.684Z,23.90
2023-03-04T04:14:46.655Z,22.90
2023-03-04T04:15:46.645Z,23.20
2023-03-04T04:16:46.650Z,22.00
2023-03-04T04:17:46.632Z,22.20
2023-03-04T04:18:46.798Z,24.20
2023-03-04T04:19:46.591Z,23.80
2023-03-04T04:20:46.584Z,24.70
2023-03-04T04:21:46.571Z,23.00
2023-03-04T04:22:46.569Z,24.70
2023-03-04T04:23:46.565Z,24.30
2023-03-04T04:24:46.524Z,23.00
2023-03-04T04:25:46.519Z,23.80
2023-03-04T04:26:46.502Z,23.50
2023-03-04T04:27:46.488Z,23.20
2023-03-04T04:28:46.492Z,23.90
2023-03-04T04:29:46.460Z,24.40
2023-03-04T04:30:46.464Z,23.20
2023-03-04T04:31:46.444Z,22.50
2023-03-04T04:32:46.445Z,24.60
2023-03-04T04:33:46.445Z,24.80
2023-03-04T04:34:46.408Z,22.40
2023-03-04T04:35:46.422Z,24.70
2023-03-04T04:36:46.390Z,24.60
2023-03-04T04:37:46.386Z,24.30
2023-03-04T04:38:46.370Z,23.60
2023-03-04T04:39:46.345Z,23.80
2023-03-04T04:40:46.318Z,24.20
2023-03-04T04:41:46.311Z,24.90
2023-03-04T04:42:46.291Z,25.30
2023-03-04T04:43:46.308Z,24.30
2023-03-04T04:44:46.269Z,24.10
2023-03-04T04:45:46.344Z,25.70
2023-03-04T04:46:46.258Z,24.20
2023-03-04T04:47:46.264Z,26.70
2023-03-04T04:48:46.223Z,26.30
2023-03-04T04:49:46.247Z,24.70
2023-03-04T04:50:46.208Z,24.80
2023-03-04T04:51:46.186Z,25.10
2023-03-04T04:52:46.192Z,24.70
2023-03-04T04:53:46.171Z,25.20
2023-03-04T04:54:46.155Z,26.70
2023-03-04T04:55:46.155Z,24.70
2023-03-04T04:56:46.128Z,26.00
2023-03-04T04:57:46.151Z,25.30
2023-03-04T04:58:46.108Z,25.70
2023-03-04T04:59:46.145Z,24.90
2023-03-04T05:00:46.071Z,25.10
2023-03-04T05:01:46.124Z,25.40
2023-03-04T05:02:46.069Z,26.70
2023-03-04T05:03:46.111Z,26.20
2023-03-04T05:04:46.046Z,25.10
2023-03-04T05:05:46.020Z,24.30
2023-03-04T05:06:46.011Z,24.60
2023-03-04T05:07:46.027Z,25.70
2023-03-04T05:08:45.977Z,25.30
2023-03-04T05:09:46.011Z,25.70
2023-03-04T05:10:45.955Z,24.90
2023-03-04T05:11:45.953Z,25.70
2023-03-04T05:12:45.929Z,25.20
2023-03-04T05:13:45.919Z,25.40
2023-03-04T05:14:45.932Z,25.10
2023-03-04T05:15:45.928Z,25.00
2023-03-04T05:16:45.887Z,26.60
2023-03-04T05:17:45.922Z,25.20
2023-03-04T05:18:45.865Z,26.00
2023-03-04T05:19:45.861Z,27.60
2023-03-04T05:20:45.833Z,24.70
2023-03-04T05:21:45.825Z,25.80
2023-03-04T05:22:45.816Z,26.40
2023-03-04T05:23:45.821Z,26.30
2023-03-04T05:24:45.794Z,26.60
2023-03-04T05:25:45.788Z,25.90
2023-03-04T05:26:45.763Z,26.50
2023-03-04T05:27:45.757Z,26.60
2023-03-04T05:28:45.772Z,27.70
2023-03-04T05:29:45.723Z,26.90
2023-03-04T05:30:45.773Z,27.70
2023-03-04T05:31:45.705Z,27.60
2023-03-04T05:32:45.710Z,28.50
2023-03-04T05:33:45.697Z,28.70
2023-03-04T05:34:45.660Z,28.90
2023-03-04T05:35:45.721Z,28.80
2023-03-04T05:36:45.664Z,30.10
2023-03-04T05:37:45.628Z,30.80
2023-03-04T05:38:45.574Z,28.40
2023-03-04T05:39:45.563Z,30.70
2023-03-04T05:40:45.564Z,28.50
2023-03-04T05:41:45.531Z,29.70
2023-03-04T05:42:45.575Z,29.30
2023-03-04T05:43:45.544Z,29.30
2023-03-04T05:44:45.528Z,28.70
2023-03-04T05:45:45.483Z,30.60
2023-03-04T05:46:45.488Z,30.50
2023-03-04T05:47:45.490Z,29.00
2023-03-04T05:48:45.466Z,30.20
2023-03-04T05:49:45.426Z,29.60
2023-03-04T05:50:45.417Z,29.80
2023-03-04T05:51:45.409Z,30.60
2023-03-04T05:52:45.418Z,28.40
2023-03-04T05:53:45.417Z,31.00
2023-03-04T05:54:45.360Z,30.50
2023-03-04T05:55:45.373Z,31.50
2023-03-04T05:56:45.350Z,30.20
2023-03-04T05:57:45.354Z,29.30
2023-03-04T05:58:45.357Z,29.00
2023-03-04T05:59:45.315Z,29.60
2023-03-04T06:00:45.285Z,31.00
2023-03-04T06:01:45.279Z,29.40
2023-03-04T06:02:45.358Z,30.80
2023-03-04T06:03:45.360Z,29.70
2023-03-04T06:04:45.242Z,30.00
2023-03-04T06:05:45.229Z,30.50
2023-03-04T06:06:45.210Z,27.80
2023-03-04T06:07:45.210Z,30.80
2023-03-04T06:08:45.242Z,30.40
2023-03-04T06:09:45.205Z,27.70
2023-03-04T06:10:45.175Z,29.20
2023-03-04T06:11:45.166Z,28.00
2023-03-04T06:12:45.138Z,29.70
2023-03-04T06:13:45.150Z,29.60
2023-03-04T06:14:45.140Z,28.20
2023-03-04T06:15:45.146Z,29.70
2023-03-04T06:16:45.085Z,27.70
2023-03-04T06:17:45.113Z,27.10
2023-03-04T06:18:45.086Z,28.10
2023-03-04T06:19:45.067Z,29.10
2023-03-04T06:20:45.043Z,28.90
2023-03-04T06:21:45.037Z,28.40
2023-03-04T06:22:45.022Z,28.70
2023-03-04T06:23:45.034Z,29.50
2023-03-04T06:24:44.998Z,27.10
2023-03-04T06:25:44.986Z,26.10
2023-03-04T06:26:44.960Z,26.80
2023-03-04T06:27:44.970Z,27.80
2023-03-04T06:28:44.985Z,27.80
2023-03-04T06:29:44.939Z,28.20
2023-03-04T06:30:44.924Z,27.40
2023-03-04T06:31:45.011Z,26.90
2023-03-04T06:32:44.900Z,27.90
2023-03-04T06:33:44.912Z,28.00
2023-03-04T06:34:44.877Z,28.40
2023-03-04T06:35:44.950Z,26.60
2023-03-04T06:36:44.854Z,28.20
2023-03-04T06:37:44.865Z,28.80
2023-03-04T06:38:44.850Z,28.00
2023-03-04T06:39:44.823Z,28.50
2023-03-04T06:40:44.792Z,28.10
2023-03-04T06:41:44.812Z,27.20
2023-03-04T06:42:44.764Z,26.50
2023-03-04T06:43:44.770Z,27.90
2023-03-04T06:44:44.754Z,27.70
2023-03-04T06:45:44.758Z,28.10
2023-03-04T06:46:44.768Z,28.00
2023-03-04T06:47:44.731Z,30.30
2023-03-04T06:48:44.693Z,29.10
2023-03-04T06:49:44.709Z,30.70
2023-03-04T06:50:44.665Z,32.00
2023-03-04T06:51:44.683Z,30.70
2023-03-04T06:52:44.649Z,31.50
2023-03-04T06:53:44.654Z,31.80
2023-03-04T06:54:44.625Z,31.80
2023-03-04T06:55:44.614Z,32.60
2023-03-04T06:56:44.601Z,31.70
2023-03-04T06:57:45.531Z,30.70
2023-03-04T06:58:44.590Z,36.30
2023-03-04T06:59:44.596Z,33.80
2023-03-04T07:00:44.592Z,35.80
2023-03-04T07:01:44.573Z,33.90
2023-03-04T07:02:44.520Z,30.80
2023-03-04T07:03:44.609Z,30.00
2023-03-04T07:04:44.496Z,28.10
2023-03-04T07:05:44.484Z,29.20
2023-03-04T07:07:54.627Z,27.80
2023-03-04T07:08:55.598Z,29.40
2023-03-04T07:09:55.578Z,27.80
2023-03-04T07:10:55.571Z,27.90
2023-03-04T07:11:55.569Z,26.80
2023-03-04T07:12:55.545Z,27.50
2023-03-04T07:13:55.546Z,27.80
2023-03-04T07:14:55.517Z,27.90
2023-03-04T07:15:55.504Z,25.20
2023-03-04T07:16:55.503Z,26.60
2023-03-04T07:17:55.482Z,27.30
2023-03-04T07:18:55.486Z,25.50
2023-03-04T07:19:55.449Z,25.20
2023-03-04T07:20:55.444Z,25.30
2023-03-04T07:21:55.437Z,25.60
2023-03-04T07:22:55.420Z,26.10
2023-03-04T07:23:55.426Z,25.90
2023-03-04T07:24:55.395Z,25.40
2023-03-04T07:25:55.380Z,26.50
2023-03-04T07:26:55.367Z,26.50
2023-03-04T07:27:55.351Z,24.80
2023-03-04T07:28:55.361Z,26.60
2023-03-04T07:29:55.324Z,25.60
2023-03-04T07:30:55.315Z,27.10
2023-03-04T07:31:55.395Z,25.50
2023-03-04T07:32:55.301Z,24.80
2023-03-04T07:33:55.290Z,26.30
2023-03-04T07:34:55.274Z,25.50
2023-03-04T07:35:55.265Z,26.30
2023-03-04T07:36:55.253Z,24.50
2023-03-04T07:37:55.225Z,23.20
2023-03-04T07:38:55.239Z,25.60
2023-03-04T07:39:55.200Z,25.60
2023-03-04T07:40:55.190Z,25.90
2023-03-04T07:41:55.173Z,26.50
2023-03-04T07:42:55.155Z,25.70
2023-03-04T07:43:55.172Z,26.20
2023-03-04T07:44:55.150Z,27.10
2023-03-04T07:45:55.167Z,25.20
2023-03-04T07:46:55.115Z,28.00
2023-03-04T07:47:55.097Z,26.70
2023-03-04T07:48:55.113Z,33.20
2023-03-04T07:49:55.076Z,31.80
2023-03-04T07:50:55.181Z,34.60
2023-03-04T07:51:55.054Z,39.60
2023-03-04T07:52:55.046Z,36.50
2023-03-04T07:53:55.039Z,36.50
2023-03-04T07:54:55.019Z,33.70
2023-03-04T07:55:55.001Z,33.10
2023-03-04T07:56:54.995Z,29.70
2023-03-04T07:57:54.981Z,29.80
2023-03-04T07:58:54.994Z,30.40
2023-03-04T07:59:54.956Z,33.70
2023-03-04T08:00:54.949Z,30.50
2023-03-04T08:01:54.932Z,30.80
2023-03-04T08:02:54.916Z,29.00
2023-03-04T08:03:54.947Z,29.70
2023-03-04T08:04:54.901Z,29.90
2023-03-04T08:05:54.882Z,30.30
2023-03-04T08:06:54.873Z,28.80
2023-03-04T08:07:54.863Z,27.50
2023-03-04T08:08:54.847Z,24.50
2023-03-04T08:09:54.882Z,28.00
2023-03-04T08:10:54.817Z,28.20
2023-03-04T08:11:54.802Z,28.20
2023-03-04T08:12:54.799Z,27.40
2023-03-04T08:13:54.781Z,26.10
2023-03-04T08:14:54.814Z,24.90
2023-03-04T08:15:54.774Z,25.70
2023-03-04T08:16:54.744Z,26.20
2023-03-04T08:17:54.726Z,24.20
2023-03-04T08:18:54.742Z,24.30
2023-03-04T08:19:54.728Z,25.70
2023-03-04T08:20:54.693Z,24.70
2023-03-04T08:21:54.682Z,24.20
2023-03-04T08:22:54.676Z,22.90
2023-03-04T08:23:54.743Z,23.30
2023-03-04T08:24:54.657Z,23.10
2023-03-04T08:25:54.633Z,23.00
2023-03-04T08:26:54.617Z,23.40
2023-03-04T08:27:54.609Z,23.00
2023-03-04T08:28:54.597Z,23.00
2023-03-04T08:29:54.591Z,22.80
2023-03-04T08:30:54.661Z,21.70
2023-03-04T08:31:54.746Z,22.50
2023-03-04T08:32:54.666Z,21.20
2023-03-04T08:33:54.547Z,18.90
2023-03-04T08:34:54.514Z,19.90
2023-03-04T08:35:54.525Z,20.10
2023-03-04T08:36:54.487Z,18.60
2023-03-04T08:37:54.470Z,19.10
2023-03-04T08:38:54.483Z,20.50
2023-03-04T08:39:54.450Z,20.60
2023-03-04T08:40:54.452Z,18.50
2023-03-04T08:41:54.423Z,19.70
2023-03-04T08:42:54.411Z,18.90
2023-03-04T08:43:54.438Z,20.00
2023-03-04T08:44:54.417Z,19.30
2023-03-04T08:45:54.389Z,18.80
2023-03-04T08:46:54.362Z,18.00
2023-03-04T08:47:54.342Z,18.30
2023-03-04T08:48:54.333Z,17.90
2023-03-04T08:49:54.545Z,18.70
2023-03-04T08:50:54.307Z,19.20
2023-03-04T08:51:54.291Z,18.90
2023-03-04T08:52:54.282Z,17.40
2023-03-04T08:53:54.266Z,16.90
2023-03-04T08:54:54.278Z,16.80
2023-03-04T08:55:54.249Z,16.90
2023-03-04T08:56:54.239Z,18.30
2023-03-04T08:57:54.216Z,16.60
2023-03-04T08:58:54.218Z,16.90
2023-03-04T08:59:54.217Z,17.60
2023-03-04T09:00:54.186Z,15.90
2023-03-04T09:01:54.215Z,16.20
2023-03-04T09:02:54.167Z,16.70
2023-03-04T09:03:54.240Z,16.50
2023-03-04T09:04:54.130Z,15.60
2023-03-04T09:05:54.119Z,17.30
2023-03-04T09:06:54.171Z,17.50
2023-03-04T09:07:54.099Z,16.40
2023-03-04T09:08:54.096Z,16.30
2023-03-04T09:09:54.062Z,16.20
2023-03-04T09:10:54.050Z,15.30
2023-03-04T09:11:54.042Z,15.10
2023-03-04T09:12:54.028Z,15.20
2023-03-04T09:13:54.048Z,15.90
2023-03-04T09:15:09.773Z,16.60
2023-03-04T09:15:54.147Z,16.70
2023-03-04T09:16:53.976Z,16.00
2023-03-04T09:17:53.969Z,15.30
2023-03-04T09:18:53.977Z,16.70
2023-03-04T09:19:53.957Z,15.40
2023-03-04T09:20:53.920Z,15.60
2023-03-04T09:21:53.910Z,15.20
2023-03-04T09:22:53.898Z,15.40
2023-03-04T09:23:53.881Z,15.80
2023-03-04T09:24:53.896Z,14.80
2023-03-04T09:25:53.880Z,15.20
2023-03-04T09:26:53.846Z,15.10
2023-03-04T09:27:53.860Z,15.50
2023-03-04T09:28:53.818Z,15.10
2023-03-04T09:29:53.811Z,15.40
2023-03-04T09:30:53.819Z,15.00
2023-03-04T09:31:53.791Z,15.80
2023-03-04T09:32:53.773Z,14.30
2023-03-04T09:33:53.769Z,14.00
2023-03-04T09:34:53.750Z,12.80
2023-03-04T09:35:53.789Z,13.20
2023-03-04T09:36:53.744Z,12.40
2023-03-04T09:37:53.730Z,13.70
2023-03-04T09:38:53.697Z,14.20
2023-03-04T09:39:53.688Z,13.40
2023-03-04T09:40:53.702Z,13.50
2023-03-04T09:41:53.662Z,13.00
2023-03-04T09:42:53.643Z,13.50
2023-03-04T09:43:53.662Z,12.90
2023-03-04T09:44:53.630Z,13.50
2023-03-04T09:45:53.619Z,13.40
2023-03-04T09:46:53.690Z,13.20
2023-03-04T09:47:53.586Z,12.80
2023-03-04T09:48:53.568Z,12.60
2023-03-04T09:49:53.592Z,12.30
2023-03-04T09:50:53.558Z,13.40
2023-03-04T09:51:53.537Z,12.30
2023-03-04T09:52:53.516Z,12.60
2023-03-04T09:53:53.509Z,12.30
2023-03-04T09:54:53.495Z,12.70
2023-03-04T09:55:53.497Z,13.20
2023-03-04T09:56:53.463Z,13.10
2023-03-04T09:57:53.455Z,13.40
2023-03-04T09:58:53.444Z,13.60
2023-03-04T09:59:53.446Z,11.70
2023-03-04T10:00:53.545Z,13.10
2023-03-04T10:01:53.418Z,13.00
2023-03-04T10:02:53.397Z,12.70
2023-03-04T10:03:53.434Z,12.50
2023-03-04T10:04:53.460Z,12.10
2023-03-04T10:05:53.372Z,11.60
2023-03-04T10:06:53.336Z,12.10
2023-03-04T10:07:53.329Z,12.10
2023-03-04T10:08:53.309Z,12.60
2023-03-04T10:09:53.297Z,11.00
2023-03-04T10:10:53.405Z,11.60
2023-03-04T10:11:53.274Z,12.00
2023-03-04T10:12:53.264Z,12.30
2023-03-04T10:13:53.253Z,11.60
2023-03-04T10:14:53.244Z,11.90
2023-03-04T10:15:53.259Z,11.40
2023-03-04T10:16:53.225Z,11.80
2023-03-04T10:17:53.194Z,11.30
2023-03-04T10:18:53.184Z,12.40
2023-03-04T10:19:53.197Z,12.30
2023-03-04T10:20:53.149Z,11.20
2023-03-04T10:21:53.141Z,11.70
2023-03-04T10:22:53.126Z,11.30
2023-03-04T10:23:53.122Z,12.20
2023-03-04T10:24:53.122Z,12.20
2023-03-04T10:25:53.089Z,11.70
2023-03-04T10:26:53.079Z,11.10
2023-03-04T10:27:53.070Z,11.00
2023-03-04T10:28:53.046Z,11.90
2023-03-04T10:29:53.057Z,14.20
2023-03-04T10:30:53.030Z,15.40
2023-03-04T10:31:53.043Z,16.90
2023-03-04T10:32:53.000Z,17.20
2023-03-04T10:33:52.989Z,10.70
2023-03-04T10:34:52.988Z,14.20
2023-03-04T10:35:53.157Z,12.70
2023-03-04T10:36:52.949Z,12.10
2023-03-04T10:37:55.358Z,13.00
2023-03-04T10:38:52.915Z,12.10
2023-03-04T10:39:52.921Z,12.20
2023-03-04T10:40:52.917Z,11.80
2023-03-04T10:41:52.949Z,11.80
2023-03-04T10:42:52.872Z,14.60
2023-03-04T10:43:52.856Z,14.20
2023-03-04T10:44:52.864Z,15.20
2023-03-04T10:45:52.838Z,12.90
2023-03-04T10:46:52.827Z,12.30
2023-03-04T10:47:52.802Z,12.50
2023-03-04T10:48:52.784Z,11.10
2023-03-04T10:49:52.773Z,11.80
2023-03-04T10:50:52.755Z,11.40
2023-03-04T10:51:52.766Z,11.10
2023-03-04T10:52:52.754Z,11.40
2023-03-04T10:53:52.729Z,10.60
2023-03-04T10:54:52.733Z,10.60
2023-03-04T10:55:52.689Z,10.10
2023-03-04T10:56:52.679Z,10.20
2023-03-04T10:57:52.666Z,12.10
2023-03-04T10:58:52.654Z,12.10
2023-03-04T10:59:52.660Z,10.90
2023-03-04T11:00:52.624Z,10.60
2023-03-04T11:01:52.639Z,11.90
2023-03-04T11:02:52.602Z,10.60
2023-03-04T11:03:52.609Z,10.60
2023-03-04T11:04:52.573Z,11.00
2023-03-04T11:05:52.566Z,11.70
2023-03-04T11:06:52.583Z,11.70
2023-03-04T11:07:56.300Z,11.00
2023-03-04T11:08:52.515Z,11.40
2023-03-04T11:09:52.508Z,10.00
2023-03-04T11:10:52.524Z,12.40
2023-03-04T11:11:52.481Z,10.80
2023-03-04T11:12:52.485Z,10.00
2023-03-04T11:13:52.462Z,10.10
2023-03-04T11:14:52.499Z,10.70
2023-03-04T11:15:52.437Z,10.90
2023-03-04T11:16:52.492Z,10.70
2023-03-04T11:17:52.402Z,9.80
2023-03-04T11:18:52.386Z,10.90
2023-03-04T11:19:52.394Z,10.00
2023-03-04T11:20:52.371Z,10.30
2023-03-04T11:21:52.354Z,10.10
2023-03-04T11:22:52.363Z,9.80
2023-03-04T11:23:52.336Z,10.20
2023-03-04T11:24:52.309Z,10.40
2023-03-04T11:25:52.299Z,10.00
2023-03-04T11:26:52.281Z,10.00
2023-03-04T11:27:52.310Z,9.80
2023-03-04T11:28:52.257Z,10.90
2023-03-04T11:29:52.246Z,9.60
2023-03-04T11:30:52.249Z,9.40
2023-03-04T11:31:52.224Z,10.00
2023-03-04T11:32:52.297Z,9.90
2023-03-04T11:33:52.192Z,11.30
2023-03-04T11:34:52.180Z,10.40
2023-03-04T11:35:52.209Z,9.20
2023-03-04T11:36:52.160Z,10.20
2023-03-04T11:37:52.176Z,10.90
2023-03-04T11:38:52.278Z,11.20
2023-03-04T11:39:52.135Z,10.10
2023-03-04T11:40:52.117Z,10.10
2023-03-04T11:41:52.111Z,9.50
2023-03-04T11:42:52.130Z,10.50
2023-03-04T11:43:52.105Z,11.20
2023-03-04T11:44:52.081Z,10.00
2023-03-04T11:45:52.162Z,9.80
2023-03-04T11:46:52.053Z,10.00
2023-03-04T11:47:52.062Z,10.40
2023-03-04T11:48:52.037Z,10.40
2023-03-04T11:49:52.024Z,10.20
2023-03-04T11:50:52.043Z,10.30
2023-03-04T11:51:51.990Z,9.90
2023-03-04T11:52:52.017Z,10.60
2023-03-04T11:53:51.974Z,10.80
2023-03-04T11:54:51.952Z,10.00
2023-03-04T11:55:51.947Z,9.80
2023-03-04T11:56:51.928Z,9.30
2023-03-04T11:57:52.158Z,10.80
2023-03-04T11:58:51.897Z,9.70
2023-03-04T11:59:51.892Z,11.20
2023-03-04T12:00:51.891Z,11.30
2023-03-04T12:01:51.884Z,10.50
2023-03-04T12:02:51.845Z,9.30
2023-03-04T12:03:52.051Z,10.50
2023-03-04T12:04:51.824Z,10.70
2023-03-04T12:05:51.808Z,10.50
2023-03-04T12:06:51.803Z,9.60
2023-03-04T12:07:51.781Z,10.00
2023-03-04T12:08:51.788Z,10.70
2023-03-04T12:09:51.758Z,10.60
2023-03-04T12:10:51.770Z,9.70
2023-03-04T12:11:51.744Z,11.60
2023-03-04T12:12:51.721Z,9.90
2023-03-04T12:13:51.748Z,9.90
2023-03-04T12:14:51.687Z,9.00
2023-03-04T12:15:51.747Z,10.40
2023-03-04T12:16:51.664Z,9.50
2023-03-04T12:17:51.654Z,10.40
2023-03-04T12:18:51.641Z,9.90
2023-03-04T12:19:51.632Z,10.60
2023-03-04T12:20:51.629Z,10.30
2023-03-04T12:21:51.605Z,9.60
2023-03-04T12:22:51.595Z,10.40
2023-03-04T12:23:51.600Z,10.20
2023-03-04T12:24:51.564Z,9.90
2023-03-04T12:25:51.550Z,10.30
2023-03-04T12:26:51.543Z,9.60
2023-03-04T12:27:51.534Z,9.90
2023-03-04T12:28:51.550Z,9.20
2023-03-04T12:29:51.510Z,9.80
2023-03-04T12:30:51.598Z,10.00
2023-03-04T12:31:51.476Z,9.50
2023-03-04T12:32:51.460Z,10.60
2023-03-04T12:33:51.505Z,10.00
2023-03-04T12:34:51.448Z,9.80
2023-03-04T12:35:51.564Z,9.70
2023-03-04T12:36:51.404Z,9.10
2023-03-04T12:37:51.395Z,9.60
2023-03-04T12:38:51.379Z,9.80
2023-03-04T12:39:51.378Z,10.20
2023-03-04T12:40:51.380Z,10.70
2023-03-04T12:41:51.344Z,9.30
2023-03-04T12:42:51.324Z,9.70
2023-03-04T12:43:51.321Z,9.90
2023-03-04T12:44:51.354Z,9.80
2023-03-04T12:45:51.299Z,10.30
2023-03-04T12:46:51.364Z,9.90
2023-03-04T12:47:51.266Z,10.30
2023-03-04T12:48:51.247Z,9.40
2023-03-04T12:49:51.276Z,9.20
2023-03-04T12:50:51.223Z,9.70
2023-03-04T12:51:51.212Z,10.20
2023-03-04T12:52:51.202Z,9.50
2023-03-04T12:53:51.189Z,10.00
2023-03-04T12:54:51.186Z,9.90
2023-03-04T12:55:51.179Z,11.50